createdAt,value
2018-11-21T00:06:46.568Z,65.9
2018-11-21T00:21:58.412Z,66.8
2018-11-21T00:37:10.177Z,67.5
2018-11-21T00:52:22.004Z,67.6
2018-11-21T01:07:34.002Z,68.2
2018-11-21T01:22:39.739Z,67.9
2018-11-21T01:37:57.254Z,67.9
2018-11-21T01:53:09.010Z,68
2018-11-21T02:08:20.553Z,69.7
2018-11-21T02:23:32.301Z,69.3
2018-11-21T02:38:43.974Z,69.8
2018-11-21T02:53:55.713Z,69.7
2018-11-21T03:09:07.335Z,70.5
2018-11-21T03:24:19.210Z,70.4
2018-11-21T03:39:27.015Z,69.8
2018-11-21T03:54:42.722Z,70.5
2018-11-21T04:09:54.417Z,70.5
2018-11-21T04:25:06.135Z,71.2
2018-11-21T04:40:17.878Z,72.5
2018-11-21T04:55:29.632Z,71.6
2018-11-21T05:10:41.485Z,71
2018-11-21T05:25:53.251Z,70.9
2018-11-21T05:41:04.923Z,71.9
2018-11-21T05:56:14.002Z,72.6
2018-11-21T06:11:29.999Z,73.7
2018-11-21T06:26:40.782Z,75.2
2018-11-21T06:41:51.805Z,74.7
2018-11-21T06:56:54.400Z,75.2
2018-11-21T07:12:15.179Z,75.2
2018-11-21T07:27:26.812Z,75.8
2018-11-21T07:42:38.504Z,75.9
2018-11-21T07:57:50.367Z,75.5
2018-11-21T08:13:00.290Z,77.8
2018-11-21T08:28:13.748Z,77.3
2018-11-21T08:43:25.564Z,77.8
2018-11-21T08:58:37.315Z,76.2
2018-11-21T09:13:41.278Z,75.6
2018-11-21T09:29:01.103Z,74.7
2018-11-21T09:44:12.960Z,74.2
2018-11-21T09:59:24.950Z,73.4
2018-11-21T10:14:36.724Z,71.7
2018-11-21T10:29:48.113Z,72
2018-11-21T10:45:00.661Z,72.7
2018-11-21T11:00:12.544Z,72.6
2018-11-21T11:15:24.358Z,71.2
2018-11-21T11:30:29.105Z,71.5
2018-11-21T11:45:49.013Z,71.3
2018-11-21T12:01:00.420Z,73.1
2018-11-21T12:16:12.515Z,72
2018-11-21T12:31:24.683Z,70.8
2018-11-21T12:46:36.393Z,70.2
2018-11-21T13:01:49.492Z,71
2018-11-21T13:17:01.088Z,76.3
2018-11-21T13:32:13.729Z,68.8
2018-11-21T13:47:17.550Z,72
2018-11-21T14:02:37.657Z,73.8
2018-11-21T14:17:49.550Z,75
2018-11-21T14:33:01.636Z,74.9
2018-11-21T14:48:13.228Z,74.6
2018-11-21T15:03:23.984Z,75
2018-11-21T15:18:36.847Z,73.8
2018-11-21T15:33:48.522Z,74.9
2018-11-21T15:49:00.457Z,74.9
2018-11-21T16:04:04.784Z,74.7
2018-11-21T16:19:23.936Z,74.3
2018-11-21T16:34:35.740Z,74.9
2018-11-21T16:49:47.654Z,76.4
2018-11-21T17:05:00.171Z,87.2
2018-11-21T17:20:10.985Z,84.4
2018-11-21T17:35:22.832Z,79.3
2018-11-21T17:50:34.533Z,79
2018-11-21T18:05:46.425Z,78.6
2018-11-21T18:20:56.907Z,76.3
2018-11-21T18:36:10.068Z,75.4
2018-11-21T18:51:22.374Z,80.2
2018-11-21T19:06:33.945Z,74.9
2018-11-21T19:21:41.723Z,77.1
2018-11-21T19:36:57.814Z,77
2018-11-21T19:52:09.927Z,76.2
2018-11-21T20:07:21.560Z,77.9
2018-11-21T20:22:26.257Z,74.3
2018-11-21T20:37:45.205Z,70.7
2018-11-21T20:52:57.188Z,79.7
2018-11-21T21:08:09.709Z,72.5
2018-11-21T21:23:21.808Z,74.9
2018-11-21T21:38:33.614Z,77.3
2018-11-21T21:53:45.281Z,78.8
2018-11-21T22:08:57.020Z,81
2018-11-21T22:24:08.818Z,79.8
2018-11-21T22:39:14.222Z,78.8
2018-11-21T22:54:32.430Z,78.5
2018-11-21T23:09:44.391Z,78.2
2018-11-21T23:24:56.033Z,77.8
2018-11-21T23:40:07.698Z,78
2018-11-21T23:55:19.468Z,77.3
